sensor_id;sensor_type;location;lat;lon;timestamp;P1;durP1;ratioP1;P2;durP2;ratioP2
4432;SDS011;2229;48.708;9.706;2023-08-01T00:00:46;2.40;;;1.20;;
4432;SDS011;2229;48.708;9.706;2023-08-01T00:03:14;2.73;;;1.20;;
4432;SDS011;2229;48.708;9.706;2023-08-01T00:05:41;4.07;;;2.00;;
4432;SDS011;2229;48.708;9.706;2023-08-01T00:08:10;1.93;;;0.90;;
4432;SDS011;2229;48.708;9.706;2023-08-01T00:10:39;1.57;;;0.93;;
4432;SDS011;2229;48.708;9.706;2023-08-01T00:13:08;2.33;;;1.20;;
4432;SDS011;2229;48.708;9.706;2023-08-01T00:15:36;2.10;;;1.30;;
4432;SDS011;2229;48.708;9.706;2023-08-01T00:18:03;3.80;;;1.23;;
4432;SDS011;2229;48.708;9.706;2023-08-01T00:20:30;5.73;;;1.53;;
4432;SDS011;2229;48.708;9.706;2023-08-01T00:22:58;3.97;;;1.23;;
4432;SDS011;2229;48.708;9.706;2023-08-01T00:25:25;2.23;;;1.10;;
4432;SDS011;2229;48.708;9.706;2023-08-01T00:27:52;3.73;;;1.40;;
4432;SDS011;2229;48.708;9.706;2023-08-01T00:30:21;2.38;;;1.10;;
4432;SDS011;2229;48.708;9.706;2023-08-01T00:32:48;2.80;;;1.60;;
4432;SDS011;2229;48.708;9.706;2023-08-01T00:35:16;2.73;;;1.17;;
4432;SDS011;2229;48.708;9.706;2023-08-01T00:37:43;3.57;;;1.40;;
4432;SDS011;2229;48.708;9.706;2023-08-01T00:40:11;2.50;;;1.23;;
4432;SDS011;2229;48.708;9.706;2023-08-01T00:42:38;2.57;;;1.20;;
4432;SDS011;2229;48.708;9.706;2023-08-01T00:45:05;1.70;;;0.83;;
4432;SDS011;2229;48.708;9.706;2023-08-01T00:47:35;2.70;;;1.17;;
4432;SDS011;2229;48.708;9.706;2023-08-01T00:50:03;2.00;;;0.90;;
4432;SDS011;2229;48.708;9.706;2023-08-01T00:52:30;2.37;;;1.20;;
4432;SDS011;2229;48.708;9.706;2023-08-01T00:54:57;2.53;;;1.20;;
4432;SDS011;2229;48.708;9.706;2023-08-01T00:57:25;2.70;;;1.47;;
4432;SDS011;2229;48.708;9.706;2023-08-01T00:59:52;2.80;;;1.50;;
4432;SDS011;2229;48.708;9.706;2023-08-01T01:02:19;2.30;;;1.00;;
4432;SDS011;2229;48.708;9.706;2023-08-01T01:04:48;2.50;;;1.00;;
4432;SDS011;2229;48.708;9.706;2023-08-01T01:07:15;2.60;;;1.07;;
4432;SDS011;2229;48.708;9.706;2023-08-01T01:09:43;5.50;;;1.30;;
4432;SDS011;2229;48.708;9.706;2023-08-01T01:12:11;1.80;;;1.00;;
4432;SDS011;2229;48.708;9.706;2023-08-01T01:14:38;2.20;;;1.00;;
4432;SDS011;2229;48.708;9.706;2023-08-01T01:17:05;3.33;;;1.50;;
4432;SDS011;2229;48.708;9.706;2023-08-01T01:19:33;2.23;;;1.10;;
4432;SDS011;2229;48.708;9.706;2023-08-01T01:22:01;1.53;;;0.63;;
4432;SDS011;2229;48.708;9.706;2023-08-01T01:24:29;2.30;;;1.10;;
4432;SDS011;2229;48.708;9.706;2023-08-01T01:26:58;2.87;;;1.57;;
4432;SDS011;2229;48.708;9.706;2023-08-01T01:29:26;6.37;;;1.60;;
4432;SDS011;2229;48.708;9.706;2023-08-01T01:31:54;2.95;;;1.20;;
4432;SDS011;2229;48.708;9.706;2023-08-01T01:34:22;8.43;;;1.67;;
4432;SDS011;2229;48.708;9.706;2023-08-01T01:36:50;2.20;;;1.10;;
4432;SDS011;2229;48.708;9.706;2023-08-01T01:39:19;1.90;;;0.87;;
4432;SDS011;2229;48.708;9.706;2023-08-01T01:41:46;3.97;;;1.30;;
4432;SDS011;2229;48.708;9.706;2023-08-01T01:44:14;2.63;;;1.10;;
4432;SDS011;2229;48.708;9.706;2023-08-01T01:46:41;4.40;;;1.23;;
4432;SDS011;2229;48.708;9.706;2023-08-01T01:49:08;2.97;;;1.50;;
4432;SDS011;2229;48.708;9.706;2023-08-01T01:51:36;5.13;;;1.73;;
4432;SDS011;2229;48.708;9.706;2023-08-01T01:54:03;3.70;;;2.00;;
4432;SDS011;2229;48.708;9.706;2023-08-01T01:56:32;2.13;;;1.07;;
4432;SDS011;2229;48.708;9.706;2023-08-01T01:59:01;2.53;;;1.48;;
4432;SDS011;2229;48.708;9.706;2023-08-01T02:01:28;2.30;;;1.20;;
4432;SDS011;2229;48.708;9.706;2023-08-01T02:03:56;5.00;;;1.20;;
4432;SDS011;2229;48.708;9.706;2023-08-01T02:06:23;2.67;;;1.80;;
4432;SDS011;2229;48.708;9.706;2023-08-01T02:08:50;7.70;;;1.40;;
4432;SDS011;2229;48.708;9.706;2023-08-01T02:11:18;2.30;;;1.10;;
4432;SDS011;2229;48.708;9.706;2023-08-01T02:13:47;6.17;;;2.20;;
4432;SDS011;2229;48.708;9.706;2023-08-01T02:16:14;2.67;;;1.43;;
4432;SDS011;2229;48.708;9.706;2023-08-01T02:18:41;3.33;;;1.77;;
4432;SDS011;2229;48.708;9.706;2023-08-01T02:21:09;4.07;;;1.70;;
4432;SDS011;2229;48.708;9.706;2023-08-01T02:23:36;2.50;;;0.93;;
4432;SDS011;2229;48.708;9.706;2023-08-01T02:26:04;5.13;;;1.50;;
4432;SDS011;2229;48.708;9.706;2023-08-01T02:28:33;2.90;;;1.50;;
4432;SDS011;2229;48.708;9.706;2023-08-01T02:31:02;9.63;;;2.10;;
4432;SDS011;2229;48.708;9.706;2023-08-01T02:33:29;2.10;;;1.10;;
4432;SDS011;2229;48.708;9.706;2023-08-01T02:35:56;2.40;;;1.37;;
4432;SDS011;2229;48.708;9.706;2023-08-01T02:38:23;3.57;;;1.30;;
4432;SDS011;2229;48.708;9.706;2023-08-01T02:40:50;2.57;;;1.10;;
4432;SDS011;2229;48.708;9.706;2023-08-01T02:43:18;2.43;;;1.27;;
4432;SDS011;2229;48.708;9.706;2023-08-01T02:45:45;3.53;;;1.10;;
4432;SDS011;2229;48.708;9.706;2023-08-01T02:48:14;4.57;;;1.33;;
4432;SDS011;2229;48.708;9.706;2023-08-01T02:50:41;4.03;;;1.27;;
4432;SDS011;2229;48.708;9.706;2023-08-01T02:53:08;2.40;;;1.40;;
4432;SDS011;2229;48.708;9.706;2023-08-01T02:55:35;2.97;;;1.47;;
4432;SDS011;2229;48.708;9.706;2023-08-01T02:58:03;3.40;;;1.70;;
4432;SDS011;2229;48.708;9.706;2023-08-01T03:00:31;2.37;;;0.97;;
4432;SDS011;2229;48.708;9.706;2023-08-01T03:02:58;2.10;;;1.17;;
4432;SDS011;2229;48.708;9.706;2023-08-01T03:05:26;3.87;;;1.27;;
4432;SDS011;2229;48.708;9.706;2023-08-01T03:07:54;2.73;;;0.90;;
4432;SDS011;2229;48.708;9.706;2023-08-01T03:10:22;2.72;;;1.15;;
4432;SDS011;2229;48.708;9.706;2023-08-01T03:12:51;2.67;;;1.30;;
4432;SDS011;2229;48.708;9.706;2023-08-01T03:15:18;4.73;;;1.53;;
4432;SDS011;2229;48.708;9.706;2023-08-01T03:17:45;2.67;;;1.13;;
4432;SDS011;2229;48.708;9.706;2023-08-01T03:20:12;3.47;;;1.80;;
4432;SDS011;2229;48.708;9.706;2023-08-01T03:22:41;4.17;;;1.77;;
4432;SDS011;2229;48.708;9.706;2023-08-01T03:25:11;2.50;;;1.10;;
4432;SDS011;2229;48.708;9.706;2023-08-01T03:27:38;2.83;;;1.42;;
4432;SDS011;2229;48.708;9.706;2023-08-01T03:30:06;2.73;;;1.73;;
4432;SDS011;2229;48.708;9.706;2023-08-01T03:32:35;3.53;;;1.10;;
4432;SDS011;2229;48.708;9.706;2023-08-01T03:35:03;2.30;;;1.07;;
4432;SDS011;2229;48.708;9.706;2023-08-01T03:37:31;3.87;;;1.50;;
4432;SDS011;2229;48.708;9.706;2023-08-01T03:40:00;7.00;;;1.87;;
4432;SDS011;2229;48.708;9.706;2023-08-01T03:42:28;3.33;;;1.77;;
4432;SDS011;2229;48.708;9.706;2023-08-01T03:44:55;2.73;;;1.00;;
4432;SDS011;2229;48.708;9.706;2023-08-01T03:47:22;2.93;;;1.07;;
4432;SDS011;2229;48.708;9.706;2023-08-01T03:49:49;4.13;;;1.23;;
4432;SDS011;2229;48.708;9.706;2023-08-01T03:52:17;3.97;;;1.47;;
4432;SDS011;2229;48.708;9.706;2023-08-01T03:54:45;3.47;;;1.40;;
4432;SDS011;2229;48.708;9.706;2023-08-01T03:57:15;2.17;;;0.90;;
4432;SDS011;2229;48.708;9.706;2023-08-01T03:59:42;3.63;;;0.90;;
4432;SDS011;2229;48.708;9.706;2023-08-01T04:02:11;4.93;;;3.13;;
4432;SDS011;2229;48.708;9.706;2023-08-01T04:04:38;3.90;;;1.50;;
4432;SDS011;2229;48.708;9.706;2023-08-01T04:07:06;2.70;;;1.50;;
4432;SDS011;2229;48.708;9.706;2023-08-01T04:09:33;2.40;;;1.70;;
4432;SDS011;2229;48.708;9.706;2023-08-01T04:12:04;3.17;;;1.40;;
4432;SDS011;2229;48.708;9.706;2023-08-01T04:14:33;3.93;;;1.30;;
4432;SDS011;2229;48.708;9.706;2023-08-01T04:17:01;5.83;;;2.60;;
4432;SDS011;2229;48.708;9.706;2023-08-01T04:19:28;3.78;;;1.50;;
4432;SDS011;2229;48.708;9.706;2023-08-01T04:21:55;3.20;;;1.57;;
4432;SDS011;2229;48.708;9.706;2023-08-01T04:24:22;3.17;;;1.63;;
4432;SDS011;2229;48.708;9.706;2023-08-01T04:26:50;2.50;;;1.60;;
4432;SDS011;2229;48.708;9.706;2023-08-01T04:29:18;3.83;;;1.50;;
4432;SDS011;2229;48.708;9.706;2023-08-01T04:31:46;4.60;;;1.47;;
4432;SDS011;2229;48.708;9.706;2023-08-01T04:34:14;4.87;;;2.47;;
4432;SDS011;2229;48.708;9.706;2023-08-01T04:36:41;2.57;;;1.40;;
4432;SDS011;2229;48.708;9.706;2023-08-01T04:39:08;2.95;;;1.10;;
4432;SDS011;2229;48.708;9.706;2023-08-01T04:41:36;3.97;;;1.83;;
4432;SDS011;2229;48.708;9.706;2023-08-01T04:44:03;3.67;;;1.70;;
4432;SDS011;2229;48.708;9.706;2023-08-01T04:46:30;4.78;;;1.67;;
4432;SDS011;2229;48.708;9.706;2023-08-01T04:48:59;6.47;;;2.30;;
4432;SDS011;2229;48.708;9.706;2023-08-01T04:51:27;7.30;;;2.40;;
4432;SDS011;2229;48.708;9.706;2023-08-01T04:53:54;5.40;;;1.60;;
4432;SDS011;2229;48.708;9.706;2023-08-01T04:56:23;3.97;;;1.93;;
4432;SDS011;2229;48.708;9.706;2023-08-01T04:58:52;4.50;;;1.80;;
4432;SDS011;2229;48.708;9.706;2023-08-01T05:01:19;2.93;;;1.50;;
4432;SDS011;2229;48.708;9.706;2023-08-01T05:03:46;3.33;;;1.90;;
4432;SDS011;2229;48.708;9.706;2023-08-01T05:06:15;4.40;;;1.83;;
4432;SDS011;2229;48.708;9.706;2023-08-01T05:08:42;2.40;;;1.17;;
4432;SDS011;2229;48.708;9.706;2023-08-01T05:11:09;2.10;;;1.40;;
4432;SDS011;2229;48.708;9.706;2023-08-01T05:13:36;6.10;;;1.70;;
4432;SDS011;2229;48.708;9.706;2023-08-01T05:16:04;4.80;;;0.95;;
4432;SDS011;2229;48.708;9.706;2023-08-01T05:18:31;2.80;;;1.73;;
4432;SDS011;2229;48.708;9.706;2023-08-01T05:20:58;4.43;;;1.80;;
4432;SDS011;2229;48.708;9.706;2023-08-01T05:23:27;2.27;;;0.90;;
4432;SDS011;2229;48.708;9.706;2023-08-01T05:25:55;3.77;;;1.03;;
4432;SDS011;2229;48.708;9.706;2023-08-01T05:28:22;2.70;;;1.33;;
4432;SDS011;2229;48.708;9.706;2023-08-01T05:30:49;2.77;;;1.00;;
4432;SDS011;2229;48.708;9.706;2023-08-01T05:33:17;3.10;;;1.50;;
4432;SDS011;2229;48.708;9.706;2023-08-01T05:35:44;2.57;;;1.17;;
4432;SDS011;2229;48.708;9.706;2023-08-01T05:38:12;2.90;;;1.10;;
4432;SDS011;2229;48.708;9.706;2023-08-01T05:40:41;2.20;;;0.90;;
4432;SDS011;2229;48.708;9.706;2023-08-01T05:43:08;3.93;;;1.70;;
4432;SDS011;2229;48.708;9.706;2023-08-01T05:45:35;9.57;;;2.20;;
4432;SDS011;2229;48.708;9.706;2023-08-01T05:48:02;3.07;;;0.73;;
4432;SDS011;2229;48.708;9.706;2023-08-01T05:50:30;3.17;;;1.93;;
4432;SDS011;2229;48.708;9.706;2023-08-01T05:52:57;9.90;;;1.17;;
4432;SDS011;2229;48.708;9.706;2023-08-01T05:55:24;3.73;;;1.53;;
4432;SDS011;2229;48.708;9.706;2023-08-01T05:57:52;3.07;;;1.37;;
4432;SDS011;2229;48.708;9.706;2023-08-01T06:00:20;4.97;;;2.30;;
4432;SDS011;2229;48.708;9.706;2023-08-01T06:02:48;4.50;;;1.07;;
4432;SDS011;2229;48.708;9.706;2023-08-01T06:05:15;3.30;;;1.40;;
4432;SDS011;2229;48.708;9.706;2023-08-01T06:07:43;1.73;;;0.70;;
4432;SDS011;2229;48.708;9.706;2023-08-01T06:10:10;2.60;;;1.53;;
4432;SDS011;2229;48.708;9.706;2023-08-01T06:12:37;3.10;;;1.27;;
4432;SDS011;2229;48.708;9.706;2023-08-01T06:15:06;2.50;;;1.07;;
4432;SDS011;2229;48.708;9.706;2023-08-01T06:17:34;4.00;;;1.30;;
4432;SDS011;2229;48.708;9.706;2023-08-01T06:20:01;1.60;;;0.80;;
4432;SDS011;2229;48.708;9.706;2023-08-01T06:22:31;3.17;;;1.20;;
4432;SDS011;2229;48.708;9.706;2023-08-01T06:24:58;2.77;;;1.07;;
4432;SDS011;2229;48.708;9.706;2023-08-01T06:27:25;1.83;;;1.20;;
4432;SDS011;2229;48.708;9.706;2023-08-01T06:29:52;3.37;;;1.50;;
4432;SDS011;2229;48.708;9.706;2023-08-01T06:32:21;4.07;;;1.37;;
4432;SDS011;2229;48.708;9.706;2023-08-01T06:34:48;3.10;;;1.17;;
4432;SDS011;2229;48.708;9.706;2023-08-01T06:37:15;4.83;;;1.80;;
4432;SDS011;2229;48.708;9.706;2023-08-01T06:39:42;6.70;;;1.43;;
4432;SDS011;2229;48.708;9.706;2023-08-01T06:42:10;4.30;;;1.63;;
4432;SDS011;2229;48.708;9.706;2023-08-01T06:44:37;2.67;;;1.33;;
4432;SDS011;2229;48.708;9.706;2023-08-01T06:47:04;2.90;;;1.10;;
4432;SDS011;2229;48.708;9.706;2023-08-01T06:49:33;3.70;;;1.60;;
4432;SDS011;2229;48.708;9.706;2023-08-01T06:52:00;3.07;;;1.67;;
4432;SDS011;2229;48.708;9.706;2023-08-01T06:54:27;6.70;;;2.07;;
4432;SDS011;2229;48.708;9.706;2023-08-01T06:56:54;3.30;;;1.77;;
4432;SDS011;2229;48.708;9.706;2023-08-01T06:59:22;2.93;;;1.40;;
4432;SDS011;2229;48.708;9.706;2023-08-01T07:01:49;2.93;;;1.60;;
4432;SDS011;2229;48.708;9.706;2023-08-01T07:04:16;2.50;;;1.67;;
4432;SDS011;2229;48.708;9.706;2023-08-01T07:06:45;4.30;;;1.97;;
4432;SDS011;2229;48.708;9.706;2023-08-01T07:09:12;2.65;;;1.42;;
4432;SDS011;2229;48.708;9.706;2023-08-01T07:11:40;7.47;;;2.30;;
4432;SDS011;2229;48.708;9.706;2023-08-01T07:14:08;4.10;;;1.60;;
4432;SDS011;2229;48.708;9.706;2023-08-01T07:16:35;5.73;;;2.03;;
4432;SDS011;2229;48.708;9.706;2023-08-01T07:19:02;4.50;;;1.73;;
4432;SDS011;2229;48.708;9.706;2023-08-01T07:21:30;2.50;;;1.10;;
4432;SDS011;2229;48.708;9.706;2023-08-01T07:23:58;3.50;;;1.50;;
4432;SDS011;2229;48.708;9.706;2023-08-01T07:26:25;4.53;;;1.23;;
4432;SDS011;2229;48.708;9.706;2023-08-01T07:28:54;4.53;;;2.43;;
4432;SDS011;2229;48.708;9.706;2023-08-01T07:31:21;4.60;;;1.60;;
4432;SDS011;2229;48.708;9.706;2023-08-01T07:33:48;2.83;;;1.30;;
4432;SDS011;2229;48.708;9.706;2023-08-01T07:36:16;5.30;;;1.60;;
4432;SDS011;2229;48.708;9.706;2023-08-01T07:38:43;4.63;;;1.90;;
4432;SDS011;2229;48.708;9.706;2023-08-01T07:41:11;3.43;;;1.43;;
4432;SDS011;2229;48.708;9.706;2023-08-01T07:43:39;3.67;;;1.70;;
4432;SDS011;2229;48.708;9.706;2023-08-01T07:46:06;5.75;;;2.05;;
4432;SDS011;2229;48.708;9.706;2023-08-01T07:48:35;5.27;;;2.03;;
4432;SDS011;2229;48.708;9.706;2023-08-01T07:51:02;5.73;;;2.10;;
4432;SDS011;2229;48.708;9.706;2023-08-01T07:53:31;4.40;;;2.00;;
4432;SDS011;2229;48.708;9.706;2023-08-01T07:55:58;6.60;;;2.40;;
4432;SDS011;2229;48.708;9.706;2023-08-01T07:58:29;4.07;;;2.00;;
4432;SDS011;2229;48.708;9.706;2023-08-01T08:00:56;3.37;;;1.63;;
4432;SDS011;2229;48.708;9.706;2023-08-01T08:03:28;4.40;;;1.83;;
4432;SDS011;2229;48.708;9.706;2023-08-01T08:05:55;4.30;;;2.53;;
4432;SDS011;2229;48.708;9.706;2023-08-01T08:08:23;5.63;;;2.03;;
4432;SDS011;2229;48.708;9.706;2023-08-01T08:10:50;5.00;;;2.00;;
4432;SDS011;2229;48.708;9.706;2023-08-01T08:13:17;5.57;;;2.33;;
4432;SDS011;2229;48.708;9.706;2023-08-01T08:15:47;5.07;;;2.20;;
4432;SDS011;2229;48.708;9.706;2023-08-01T08:18:15;4.00;;;1.80;;
4432;SDS011;2229;48.708;9.706;2023-08-01T08:20:48;5.73;;;1.77;;
4432;SDS011;2229;48.708;9.706;2023-08-01T08:23:15;6.43;;;2.40;;
4432;SDS011;2229;48.708;9.706;2023-08-01T08:25:43;5.27;;;2.30;;
4432;SDS011;2229;48.708;9.706;2023-08-01T08:28:12;3.73;;;1.60;;
4432;SDS011;2229;48.708;9.706;2023-08-01T08:30:40;4.60;;;1.53;;
4432;SDS011;2229;48.708;9.706;2023-08-01T08:33:08;4.93;;;1.60;;
4432;SDS011;2229;48.708;9.706;2023-08-01T08:35:36;3.60;;;1.80;;
4432;SDS011;2229;48.708;9.706;2023-08-01T08:38:03;4.30;;;1.83;;
4432;SDS011;2229;48.708;9.706;2023-08-01T08:40:31;3.80;;;1.70;;
4432;SDS011;2229;48.708;9.706;2023-08-01T08:42:59;5.33;;;2.20;;
4432;SDS011;2229;48.708;9.706;2023-08-01T08:45:29;3.77;;;2.40;;
4432;SDS011;2229;48.708;9.706;2023-08-01T08:48:01;4.23;;;1.70;;
4432;SDS011;2229;48.708;9.706;2023-08-01T08:50:31;2.63;;;1.25;;
4432;SDS011;2229;48.708;9.706;2023-08-01T08:52:59;4.10;;;1.93;;
4432;SDS011;2229;48.708;9.706;2023-08-01T08:55:28;4.23;;;1.60;;
4432;SDS011;2229;48.708;9.706;2023-08-01T08:57:56;4.07;;;1.30;;
4432;SDS011;2229;48.708;9.706;2023-08-01T09:00:26;3.47;;;1.63;;
4432;SDS011;2229;48.708;9.706;2023-08-01T09:02:54;2.73;;;1.83;;
4432;SDS011;2229;48.708;9.706;2023-08-01T09:05:21;4.10;;;1.60;;
4432;SDS011;2229;48.708;9.706;2023-08-01T09:07:56;2.77;;;1.63;;
4432;SDS011;2229;48.708;9.706;2023-08-01T09:10:27;6.20;;;2.13;;
4432;SDS011;2229;48.708;9.706;2023-08-01T09:12:55;3.67;;;1.20;;
4432;SDS011;2229;48.708;9.706;2023-08-01T09:15:22;6.60;;;2.33;;
4432;SDS011;2229;48.708;9.706;2023-08-01T09:17:52;3.47;;;1.63;;
4432;SDS011;2229;48.708;9.706;2023-08-01T09:20:26;3.53;;;1.50;;
4432;SDS011;2229;48.708;9.706;2023-08-01T09:22:53;5.17;;;2.00;;
4432;SDS011;2229;48.708;9.706;2023-08-01T09:25:30;3.23;;;2.27;;
4432;SDS011;2229;48.708;9.706;2023-08-01T09:27:58;4.50;;;1.57;;
4432;SDS011;2229;48.708;9.706;2023-08-01T09:30:25;3.43;;;1.57;;
4432;SDS011;2229;48.708;9.706;2023-08-01T09:32:53;5.27;;;1.40;;
4432;SDS011;2229;48.708;9.706;2023-08-01T09:35:22;4.97;;;2.17;;
4432;SDS011;2229;48.708;9.706;2023-08-01T09:37:50;3.42;;;1.52;;
4432;SDS011;2229;48.708;9.706;2023-08-01T09:40:18;3.87;;;1.50;;
4432;SDS011;2229;48.708;9.706;2023-08-01T09:42:47;2.83;;;1.45;;
4432;SDS011;2229;48.708;9.706;2023-08-01T09:45:15;4.53;;;2.37;;
4432;SDS011;2229;48.708;9.706;2023-08-01T09:47:43;3.20;;;1.67;;
4432;SDS011;2229;48.708;9.706;2023-08-01T09:50:12;2.67;;;1.30;;
4432;SDS011;2229;48.708;9.706;2023-08-01T09:52:47;5.23;;;1.73;;
4432;SDS011;2229;48.708;9.706;2023-08-01T09:55:17;2.80;;;1.30;;
4432;SDS011;2229;48.708;9.706;2023-08-01T09:57:48;3.60;;;1.13;;
4432;SDS011;2229;48.708;9.706;2023-08-01T10:00:17;2.77;;;1.40;;
4432;SDS011;2229;48.708;9.706;2023-08-01T10:02:44;4.63;;;1.63;;
4432;SDS011;2229;48.708;9.706;2023-08-01T10:05:12;3.47;;;1.57;;
4432;SDS011;2229;48.708;9.706;2023-08-01T10:07:40;3.03;;;1.07;;
4432;SDS011;2229;48.708;9.706;2023-08-01T10:10:09;2.70;;;1.10;;
4432;SDS011;2229;48.708;9.706;2023-08-01T10:12:39;3.80;;;1.63;;
4432;SDS011;2229;48.708;9.706;2023-08-01T10:15:16;2.53;;;0.90;;
4432;SDS011;2229;48.708;9.706;2023-08-01T10:17:44;2.50;;;1.03;;
4432;SDS011;2229;48.708;9.706;2023-08-01T10:20:11;1.73;;;0.83;;
4432;SDS011;2229;48.708;9.706;2023-08-01T10:22:39;3.80;;;1.20;;
4432;SDS011;2229;48.708;9.706;2023-08-01T10:25:08;2.70;;;0.97;;
4432;SDS011;2229;48.708;9.706;2023-08-01T10:27:37;1.80;;;0.80;;
4432;SDS011;2229;48.708;9.706;2023-08-01T10:30:06;2.23;;;0.73;;
4432;SDS011;2229;48.708;9.706;2023-08-01T10:32:38;1.43;;;0.70;;
4432;SDS011;2229;48.708;9.706;2023-08-01T10:35:06;2.03;;;0.73;;
4432;SDS011;2229;48.708;9.706;2023-08-01T10:37:41;3.20;;;0.80;;
4432;SDS011;2229;48.708;9.706;2023-08-01T10:40:09;3.07;;;0.90;;
4432;SDS011;2229;48.708;9.706;2023-08-01T10:42:37;1.97;;;1.03;;
4432;SDS011;2229;48.708;9.706;2023-08-01T10:45:05;1.30;;;0.60;;
4432;SDS011;2229;48.708;9.706;2023-08-01T10:47:33;3.77;;;1.17;;
4432;SDS011;2229;48.708;9.706;2023-08-01T10:50:13;1.50;;;0.60;;
4432;SDS011;2229;48.708;9.706;2023-08-01T10:52:41;2.17;;;0.80;;
4432;SDS011;2229;48.708;9.706;2023-08-01T10:55:09;2.90;;;0.70;;
4432;SDS011;2229;48.708;9.706;2023-08-01T10:57:38;2.27;;;0.80;;
4432;SDS011;2229;48.708;9.706;2023-08-01T11:00:06;2.67;;;1.23;;
4432;SDS011;2229;48.708;9.706;2023-08-01T11:02:35;1.30;;;0.60;;
4432;SDS011;2229;48.708;9.706;2023-08-01T11:05:05;2.03;;;0.97;;
4432;SDS011;2229;48.708;9.706;2023-08-01T11:07:34;1.50;;;0.77;;
4432;SDS011;2229;48.708;9.706;2023-08-01T11:10:03;2.00;;;1.03;;
4432;SDS011;2229;48.708;9.706;2023-08-01T11:12:33;1.70;;;0.73;;
4432;SDS011;2229;48.708;9.706;2023-08-01T11:15:02;2.97;;;0.70;;
4432;SDS011;2229;48.708;9.706;2023-08-01T11:17:34;3.33;;;1.17;;
4432;SDS011;2229;48.708;9.706;2023-08-01T11:20:03;2.33;;;0.97;;
4432;SDS011;2229;48.708;9.706;2023-08-01T11:22:34;2.30;;;0.80;;
4432;SDS011;2229;48.708;9.706;2023-08-01T11:25:02;3.05;;;0.60;;
4432;SDS011;2229;48.708;9.706;2023-08-01T11:27:30;4.80;;;0.70;;
4432;SDS011;2229;48.708;9.706;2023-08-01T11:29:57;1.60;;;0.60;;
4432;SDS011;2229;48.708;9.706;2023-08-01T11:32:32;2.50;;;1.00;;
4432;SDS011;2229;48.708;9.706;2023-08-01T11:35:00;1.60;;;0.60;;
4432;SDS011;2229;48.708;9.706;2023-08-01T11:37:31;1.10;;;0.40;;
4432;SDS011;2229;48.708;9.706;2023-08-01T11:39:59;2.07;;;0.50;;
4432;SDS011;2229;48.708;9.706;2023-08-01T11:42:30;1.87;;;0.90;;
4432;SDS011;2229;48.708;9.706;2023-08-01T11:45:07;1.30;;;0.40;;
4432;SDS011;2229;48.708;9.706;2023-08-01T11:47:35;1.60;;;0.60;;
4432;SDS011;2229;48.708;9.706;2023-08-01T11:50:04;1.10;;;0.60;;
4432;SDS011;2229;48.708;9.706;2023-08-01T11:52:34;1.20;;;0.50;;
4432;SDS011;2229;48.708;9.706;2023-08-01T11:55:02;1.93;;;0.67;;
4432;SDS011;2229;48.708;9.706;2023-08-01T11:57:29;2.97;;;0.73;;
4432;SDS011;2229;48.708;9.706;2023-08-01T11:59:57;1.30;;;0.50;;
4432;SDS011;2229;48.708;9.706;2023-08-01T12:02:24;1.50;;;0.50;;
4432;SDS011;2229;48.708;9.706;2023-08-01T12:04:52;1.80;;;0.70;;
4432;SDS011;2229;48.708;9.706;2023-08-01T12:07:20;1.10;;;0.50;;
4432;SDS011;2229;48.708;9.706;2023-08-01T12:09:56;1.70;;;0.60;;
4432;SDS011;2229;48.708;9.706;2023-08-01T12:12:25;1.10;;;0.40;;
4432;SDS011;2229;48.708;9.706;2023-08-01T12:14:54;1.17;;;0.50;;
4432;SDS011;2229;48.708;9.706;2023-08-01T12:17:22;1.43;;;0.67;;
4432;SDS011;2229;48.708;9.706;2023-08-01T12:19:49;1.80;;;0.80;;
4432;SDS011;2229;48.708;9.706;2023-08-01T12:22:17;2.17;;;0.60;;
4432;SDS011;2229;48.708;9.706;2023-08-01T12:24:44;4.20;;;0.97;;
4432;SDS011;2229;48.708;9.706;2023-08-01T12:27:13;1.10;;;0.50;;
4432;SDS011;2229;48.708;9.706;2023-08-01T12:29:40;1.20;;;0.57;;
4432;SDS011;2229;48.708;9.706;2023-08-01T12:32:08;1.67;;;0.70;;
4432;SDS011;2229;48.708;9.706;2023-08-01T12:34:35;2.17;;;0.70;;
4432;SDS011;2229;48.708;9.706;2023-08-01T12:37:03;1.30;;;0.50;;
4432;SDS011;2229;48.708;9.706;2023-08-01T12:39:31;2.13;;;0.50;;
4432;SDS011;2229;48.708;9.706;2023-08-01T12:41:58;4.70;;;0.77;;
4432;SDS011;2229;48.708;9.706;2023-08-01T12:44:27;1.43;;;0.50;;
4432;SDS011;2229;48.708;9.706;2023-08-01T12:46:54;2.30;;;0.80;;
4432;SDS011;2229;48.708;9.706;2023-08-01T12:49:21;1.20;;;0.50;;
4432;SDS011;2229;48.708;9.706;2023-08-01T12:51:48;1.83;;;0.70;;
4432;SDS011;2229;48.708;9.706;2023-08-01T12:54:15;1.60;;;0.57;;
4432;SDS011;2229;48.708;9.706;2023-08-01T12:56:43;1.40;;;0.67;;
4432;SDS011;2229;48.708;9.706;2023-08-01T12:59:11;2.30;;;0.90;;
4432;SDS011;2229;48.708;9.706;2023-08-01T13:01:39;2.40;;;0.60;;
4432;SDS011;2229;48.708;9.706;2023-08-01T13:04:07;1.50;;;0.50;;
4432;SDS011;2229;48.708;9.706;2023-08-01T13:06:34;2.03;;;0.60;;
4432;SDS011;2229;48.708;9.706;2023-08-01T13:09:01;1.83;;;1.17;;
4432;SDS011;2229;48.708;9.706;2023-08-01T13:11:29;2.17;;;0.80;;
4432;SDS011;2229;48.708;9.706;2023-08-01T13:13:56;2.00;;;0.60;;
4432;SDS011;2229;48.708;9.706;2023-08-01T13:16:23;1.67;;;0.60;;
4432;SDS011;2229;48.708;9.706;2023-08-01T13:18:52;2.27;;;0.60;;
4432;SDS011;2229;48.708;9.706;2023-08-01T13:21:21;1.67;;;0.57;;
4432;SDS011;2229;48.708;9.706;2023-08-01T13:23:49;1.80;;;0.70;;
4432;SDS011;2229;48.708;9.706;2023-08-01T13:26:16;1.20;;;0.60;;
4432;SDS011;2229;48.708;9.706;2023-08-01T13:28:43;1.40;;;0.57;;
4432;SDS011;2229;48.708;9.706;2023-08-01T13:31:10;1.40;;;0.50;;
4432;SDS011;2229;48.708;9.706;2023-08-01T13:33:37;1.40;;;0.80;;
4432;SDS011;2229;48.708;9.706;2023-08-01T13:36:06;1.87;;;0.90;;
4432;SDS011;2229;48.708;9.706;2023-08-01T13:38:33;1.97;;;0.60;;
4432;SDS011;2229;48.708;9.706;2023-08-01T13:41:00;2.07;;;0.60;;
4432;SDS011;2229;48.708;9.706;2023-08-01T13:43:28;1.40;;;0.60;;
4432;SDS011;2229;48.708;9.706;2023-08-01T13:45:55;3.10;;;0.80;;
4432;SDS011;2229;48.708;9.706;2023-08-01T13:48:22;1.50;;;0.50;;
4432;SDS011;2229;48.708;9.706;2023-08-01T13:50:49;2.60;;;0.80;;
4432;SDS011;2229;48.708;9.706;2023-08-01T13:53:18;1.53;;;0.67;;
4432;SDS011;2229;48.708;9.706;2023-08-01T13:55:45;1.00;;;0.47;;
4432;SDS011;2229;48.708;9.706;2023-08-01T13:58:12;1.77;;;0.70;;
4432;SDS011;2229;48.708;9.706;2023-08-01T14:00:40;3.47;;;0.80;;
4432;SDS011;2229;48.708;9.706;2023-08-01T14:03:08;1.87;;;0.70;;
4432;SDS011;2229;48.708;9.706;2023-08-01T14:05:35;1.50;;;0.60;;
4432;SDS011;2229;48.708;9.706;2023-08-01T14:08:02;1.63;;;0.80;;
4432;SDS011;2229;48.708;9.706;2023-08-01T14:10:32;1.77;;;0.70;;
4432;SDS011;2229;48.708;9.706;2023-08-01T14:12:59;1.63;;;0.70;;
4432;SDS011;2229;48.708;9.706;2023-08-01T14:15:26;1.30;;;0.57;;
4432;SDS011;2229;48.708;9.706;2023-08-01T14:17:54;4.30;;;0.87;;
4432;SDS011;2229;48.708;9.706;2023-08-01T14:20:22;1.47;;;0.53;;
4432;SDS011;2229;48.708;9.706;2023-08-01T14:22:49;1.70;;;0.70;;
4432;SDS011;2229;48.708;9.706;2023-08-01T14:25:16;1.87;;;0.60;;
4432;SDS011;2229;48.708;9.706;2023-08-01T14:27:45;1.48;;;0.63;;
4432;SDS011;2229;48.708;9.706;2023-08-01T14:30:13;1.40;;;0.80;;
4432;SDS011;2229;48.708;9.706;2023-08-01T14:32:41;1.75;;;0.65;;
4432;SDS011;2229;48.708;9.706;2023-08-01T14:35:09;1.30;;;0.70;;
4432;SDS011;2229;48.708;9.706;2023-08-01T14:37:37;1.30;;;0.60;;
4432;SDS011;2229;48.708;9.706;2023-08-01T14:40:08;4.70;;;0.53;;
4432;SDS011;2229;48.708;9.706;2023-08-01T14:42:36;1.60;;;0.70;;
4432;SDS011;2229;48.708;9.706;2023-08-01T14:45:05;2.90;;;0.80;;
4432;SDS011;2229;48.708;9.706;2023-08-01T14:47:33;12.43;;;1.37;;
4432;SDS011;2229;48.708;9.706;2023-08-01T14:50:04;3.45;;;0.80;;
4432;SDS011;2229;48.708;9.706;2023-08-01T14:52:31;2.80;;;0.70;;
4432;SDS011;2229;48.708;9.706;2023-08-01T14:54:58;1.47;;;0.70;;
4432;SDS011;2229;48.708;9.706;2023-08-01T14:57:26;2.13;;;0.90;;
4432;SDS011;2229;48.708;9.706;2023-08-01T14:59:53;1.50;;;0.60;;
4432;SDS011;2229;48.708;9.706;2023-08-01T15:02:22;2.17;;;0.60;;
4432;SDS011;2229;48.708;9.706;2023-08-01T15:04:50;1.87;;;0.80;;
4432;SDS011;2229;48.708;9.706;2023-08-01T15:07:18;1.57;;;0.70;;
4432;SDS011;2229;48.708;9.706;2023-08-01T15:09:46;1.27;;;0.60;;
4432;SDS011;2229;48.708;9.706;2023-08-01T15:12:15;2.17;;;0.67;;
4432;SDS011;2229;48.708;9.706;2023-08-01T15:14:44;1.83;;;0.70;;
4432;SDS011;2229;48.708;9.706;2023-08-01T15:17:11;2.20;;;0.77;;
4432;SDS011;2229;48.708;9.706;2023-08-01T15:19:40;2.67;;;0.83;;